Time;durP1;ratioP1;P1;durP2;ratioP2;P2;SDS_P1;SDS_P2;PMS_P1;PMS_P2;Temp;Humidity;BMP_temperature;BMP_pressure;BME280_temperature;BME280_humidity;BME280_pressure;Samples;Min_cycle;Max_cycle;Signal;HPM_P1;HPM_P2
2024/02/28 00:00:53;;;;;;;;;;;;;;;;;;4182588;28;19925;-52
2024/02/28 00:02:54;;;;;;;;;;;;;;;;;;4182892;28;19921;-54
2024/02/28 00:04:58;;;;;;;;;;;;;;;;;;4182357;28;20399;-52
2024/02/28 00:07:00;;;;;;;;;;;;;;;;;;4191801;28;20339;-54
2024/02/28 00:09:02;;;;;;;;;;;;;;;;;;4199523;28;19920;-54
2024/02/28 00:11:03;;;;;;;;;;;;;;;;;;4179778;28;20490;-53
2024/02/28 00:13:05;;;;;;;;;;;;;;;;;;4182527;28;20015;-54
2024/02/28 00:15:10;;;;;;;;;;;;;;;;;;4182280;28;20388;-51
2024/02/28 00:17:12;;;;;;;;;;;;;;;;;;4182469;28;19921;-53
2024/02/28 00:19:14;;;;;;;;;;;;;;;;;;4182555;28;20280;-54
2024/02/28 00:21:15;;;;;;;;;;;;;;;;;;4182493;28;19927;-54
2024/02/28 00:23:17;;;;;;;;;;;;;;;;;;4182107;28;19925;-54
2024/02/28 00:25:18;;;;;;;;;;;;;;;;;;4182273;28;19967;-52
2024/02/28 00:27:20;;;;;;;;;;;;;;;;;;4182066;28;19925;-53
2024/02/28 00:29:21;;;;;;;;;;;;;;;;;;4164457;28;19928;-54
2024/02/28 00:31:23;;;;;;;;;;;;;;;;;;4182326;28;19921;-54
2024/02/28 00:33:24;;;;;;;;;;;;;;;;;;4191857;28;19994;-54
2024/02/28 00:35:26;;;;;;;;;;;;;;;;;;4215323;28;19949;-53
2024/02/28 00:37:27;;;;;;;;;;;;;;;;;;4215434;28;19928;-53
2024/02/28 00:39:29;;;;;;;;;;;;;;;;;;4215509;28;19924;-54
2024/02/28 00:41:31;;;;;;;;;;;;;;;;;;4215185;28;19924;-53
2024/02/28 00:43:32;;;;;;;;;;;;;;;;;;4215275;28;19927;-54
2024/02/28 00:45:34;;;;;;;;;;;;;;;;;;4215191;28;19920;-54
2024/02/28 00:47:35;;;;;;;;;;;;;;;;;;4197289;28;19921;-54
2024/02/28 00:49:37;;;;;;;;;;;;;;;;;;4215130;28;19924;-55
2024/02/28 00:51:38;;;;;;;;;;;;;;;;;;4215026;28;20420;-54
2024/02/28 00:53:40;;;;;;;;;;;;;;;;;;4214883;28;20272;-54
2024/02/28 00:55:41;;;;;;;;;;;;;;;;;;4215297;28;19927;-54
2024/02/28 00:57:43;;;;;;;;;;;;;;;;;;4214968;28;19969;-54
2024/02/28 00:59:48;;;;;;;;;;;;;;;;;;4214913;28;19926;-54
2024/02/28 01:01:49;;;;;;;;;;;;;;;;;;4196842;28;20316;-53
2024/02/28 01:03:51;;;;;;;;;;;;;;;;;;4213813;28;20010;-53
2024/02/28 01:05:52;;;;;;;;;;;;;;;;;;4214790;28;19920;-54
2024/02/28 01:07:54;;;;;;;;;;;;;;;;;;4198317;28;19921;-55
2024/02/28 01:09:55;;;;;;;;;;;;;;;;;;4181539;28;19920;-54
2024/02/28 01:11:57;;;;;;;;;;;;;;;;;;4181634;28;19921;-54
2024/02/28 01:13:58;;;;;;;;;;;;;;;;;;4163578;28;19943;-53
2024/02/28 01:16:00;;;;;;;;;;;;;;;;;;4181636;28;19928;-54
2024/02/28 01:18:01;;;;;;;;;;;;;;;;;;4181401;28;19927;-54
2024/02/28 01:20:03;;;;;;;;;;;;;;;;;;4181432;28;19920;-54
2024/02/28 01:22:04;;;;;;;;;;;;;;;;;;4181317;28;19921;-54
2024/02/28 01:24:06;;;;;;;;;;;;;;;;;;4181559;28;20434;-52
2024/02/28 01:26:07;;;;;;;;;;;;;;;;;;4163670;28;19929;-53
2024/02/28 01:28:09;;;;;;;;;;;;;;;;;;4181296;28;19920;-54
2024/02/28 01:30:10;;;;;;;;;;;;;;;;;;4181993;28;19920;-53
2024/02/28 01:32:11;;;;;;;;;;;;;;;;;;4214375;28;19920;-54
2024/02/28 01:34:13;;;;;;;;;;;;;;;;;;4214687;28;19924;-54
2024/02/28 01:36:14;;;;;;;;;;;;;;;;;;4214509;28;19924;-55
2024/02/28 01:38:16;;;;;;;;;;;;;;;;;;4214696;28;20360;-54
2024/02/28 01:40:18;;;;;;;;;;;;;;;;;;4214379;28;20376;-54
2024/02/28 01:42:19;;;;;;;;;;;;;;;;;;4214189;28;20346;-54
2024/02/28 01:44:20;;;;;;;;;;;;;;;;;;4214197;28;19970;-54
2024/02/28 01:46:22;;;;;;;;;;;;;;;;;;4214280;28;19927;-54
2024/02/28 01:48:24;;;;;;;;;;;;;;;;;;4214380;28;19957;-54
2024/02/28 01:50:25;;;;;;;;;;;;;;;;;;4214270;28;20549;-54
2024/02/28 01:52:27;;;;;;;;;;;;;;;;;;4214321;28;19959;-54
2024/02/28 01:54:29;;;;;;;;;;;;;;;;;;4196251;28;19973;-54
2024/02/28 01:56:31;;;;;;;;;;;;;;;;;;4214260;28;19926;-54
2024/02/28 01:58:32;;;;;;;;;;;;;;;;;;4213315;28;19985;-54
2024/02/28 02:00:34;;;;;;;;;;;;;;;;;;4196201;28;19943;-54
2024/02/28 02:02:35;;;;;;;;;;;;;;;;;;4214267;28;20175;-55
2024/02/28 02:04:37;;;;;;;;;;;;;;;;;;4189317;28;19920;-54
2024/02/28 02:06:38;;;;;;;;;;;;;;;;;;4180672;28;19928;-54
2024/02/28 02:08:40;;;;;;;;;;;;;;;;;;4180804;28;19920;-54
2024/02/28 02:10:41;;;;;;;;;;;;;;;;;;4180924;28;19947;-54
2024/02/28 02:12:43;;;;;;;;;;;;;;;;;;4180789;28;19921;-54
2024/02/28 02:14:44;;;;;;;;;;;;;;;;;;4180961;28;19956;-54
2024/02/28 02:16:46;;;;;;;;;;;;;;;;;;4184238;28;19927;-53
2024/02/28 02:18:48;;;;;;;;;;;;;;;;;;4184480;28;19951;-52
2024/02/28 02:20:50;;;;;;;;;;;;;;;;;;4184123;28;19932;-54
2024/02/28 02:22:51;;;;;;;;;;;;;;;;;;4184062;28;19963;-53
2024/02/28 02:24:52;;;;;;;;;;;;;;;;;;4184098;28;19928;-54
2024/02/28 02:26:54;;;;;;;;;;;;;;;;;;4210925;28;20265;-54
2024/02/28 02:28:55;;;;;;;;;;;;;;;;;;4217608;28;19920;-54
2024/02/28 02:30:57;;;;;;;;;;;;;;;;;;4217593;28;19927;-54
2024/02/28 02:32:58;;;;;;;;;;;;;;;;;;4217502;28;19928;-54
2024/02/28 02:35:00;;;;;;;;;;;;;;;;;;4199047;28;19924;-53
2024/02/28 02:37:02;;;;;;;;;;;;;;;;;;4199213;28;20315;-54
2024/02/28 02:39:03;;;;;;;;;;;;;;;;;;4199498;28;19928;-53
2024/02/28 02:41:05;;;;;;;;;;;;;;;;;;4217243;28;19959;-54
2024/02/28 02:43:06;;;;;;;;;;;;;;;;;;4217261;28;19928;-53
2024/02/28 02:45:08;;;;;;;;;;;;;;;;;;4216908;28;20335;-54
2024/02/28 02:47:09;;;;;;;;;;;;;;;;;;4199016;28;20391;-53
2024/02/28 02:49:11;;;;;;;;;;;;;;;;;;4217140;28;19965;-54
2024/02/28 02:51:12;;;;;;;;;;;;;;;;;;4217063;28;19920;-54
2024/02/28 02:53:14;;;;;;;;;;;;;;;;;;4206948;28;19980;-54
2024/02/28 02:55:15;;;;;;;;;;;;;;;;;;4191207;28;20376;-53
2024/02/28 02:57:17;;;;;;;;;;;;;;;;;;4200398;28;19920;-53
2024/02/28 02:59:21;;;;;;;;;;;;;;;;;;4200364;28;20334;-54
2024/02/28 03:01:22;;;;;;;;;;;;;;;;;;4183778;28;19974;-53
2024/02/28 03:03:24;;;;;;;;;;;;;;;;;;4183127;28;19924;-52
2024/02/28 03:05:25;;;;;;;;;;;;;;;;;;4183495;28;20020;-54
2024/02/28 03:07:27;;;;;;;;;;;;;;;;;;4183411;28;19927;-54
2024/02/28 03:09:28;;;;;;;;;;;;;;;;;;4183260;28;19955;-54
2024/02/28 03:11:30;;;;;;;;;;;;;;;;;;4183365;28;20365;-54
2024/02/28 03:13:31;;;;;;;;;;;;;;;;;;4165548;28;19928;-52
2024/02/28 03:15:33;;;;;;;;;;;;;;;;;;4183464;28;20330;-54
2024/02/28 03:17:34;;;;;;;;;;;;;;;;;;4183238;28;20331;-53
2024/02/28 03:19:36;;;;;;;;;;;;;;;;;;4183547;28;19928;-54
2024/02/28 03:21:37;;;;;;;;;;;;;;;;;;4184552;28;20364;-54
2024/02/28 03:23:39;;;;;;;;;;;;;;;;;;4216676;28;19924;-54
2024/02/28 03:25:40;;;;;;;;;;;;;;;;;;4216663;28;19920;-54
2024/02/28 03:27:42;;;;;;;;;;;;;;;;;;4197402;28;19924;-53
2024/02/28 03:29:44;;;;;;;;;;;;;;;;;;4216405;28;19924;-54
2024/02/28 03:31:45;;;;;;;;;;;;;;;;;;4216338;28;19920;-54
2024/02/28 03:33:47;;;;;;;;;;;;;;;;;;4216530;28;19924;-54
2024/02/28 03:35:48;;;;;;;;;;;;;;;;;;4216227;28;19928;-54
2024/02/28 03:37:50;;;;;;;;;;;;;;;;;;4216300;28;19958;-53
2024/02/28 03:39:51;;;;;;;;;;;;;;;;;;4215404;28;20372;-54
2024/02/28 03:41:53;;;;;;;;;;;;;;;;;;4199013;28;20382;-54
2024/02/28 03:43:54;;;;;;;;;;;;;;;;;;4180200;28;19922;-53
2024/02/28 03:45:56;;;;;;;;;;;;;;;;;;4198043;28;20021;-53
2024/02/28 03:47:57;;;;;;;;;;;;;;;;;;4163536;28;19921;-54
2024/02/28 03:49:59;;;;;;;;;;;;;;;;;;4170523;28;20381;-52
2024/02/28 03:52:01;;;;;;;;;;;;;;;;;;4181421;28;20238;-53
2024/02/28 03:54:02;;;;;;;;;;;;;;;;;;4181338;28;19921;-54
2024/02/28 03:56:04;;;;;;;;;;;;;;;;;;4181119;28;20380;-53
2024/02/28 03:58:08;;;;;;;;;;;;;;;;;;4196678;28;19920;-52
2024/02/28 04:00:10;;;;;;;;;;;;;;;;;;4199047;28;19924;-53
2024/02/28 04:02:11;;;;;;;;;;;;;;;;;;4198300;28;19946;-54
2024/02/28 04:04:13;;;;;;;;;;;;;;;;;;4198943;28;19928;-54
2024/02/28 04:06:14;;;;;;;;;;;;;;;;;;4199297;28;20044;-55
2024/02/28 04:08:16;;;;;;;;;;;;;;;;;;4199152;28;19959;-53
2024/02/28 04:10:18;;;;;;;;;;;;;;;;;;4199064;28;19966;-53
2024/02/28 04:12:19;;;;;;;;;;;;;;;;;;4181114;28;19924;-53
2024/02/28 04:14:21;;;;;;;;;;;;;;;;;;4181518;28;19931;-52
2024/02/28 04:16:22;;;;;;;;;;;;;;;;;;4198823;28;20429;-53
2024/02/28 04:18:24;;;;;;;;;;;;;;;;;;4203710;28;19920;-53
2024/02/28 04:20:25;;;;;;;;;;;;;;;;;;4215857;28;19927;-54
2024/02/28 04:22:27;;;;;;;;;;;;;;;;;;4215533;28;20294;-54
2024/02/28 04:24:28;;;;;;;;;;;;;;;;;;4197802;28;19920;-54
2024/02/28 04:26:30;;;;;;;;;;;;;;;;;;4216038;28;19923;-52
2024/02/28 04:28:31;;;;;;;;;;;;;;;;;;4197159;28;19962;-54
2024/02/28 04:30:33;;;;;;;;;;;;;;;;;;4215447;28;19927;-54
2024/02/28 04:32:35;;;;;;;;;;;;;;;;;;4215354;28;19928;-55
2024/02/28 04:34:37;;;;;;;;;;;;;;;;;;4215358;28;20011;-55
2024/02/28 04:36:38;;;;;;;;;;;;;;;;;;4215223;28;19927;-52
2024/02/28 04:38:40;;;;;;;;;;;;;;;;;;4215206;28;20346;-53
2024/02/28 04:40:41;;;;;;;;;;;;;;;;;;4215536;28;20424;-54
2024/02/28 04:42:43;;;;;;;;;;;;;;;;;;4215173;28;19931;-55
2024/02/28 04:44:44;;;;;;;;;;;;;;;;;;4211912;28;19966;-54
2024/02/28 04:46:46;;;;;;;;;;;;;;;;;;4189090;28;19955;-54
2024/02/28 04:48:47;;;;;;;;;;;;;;;;;;4198840;28;19927;-53
2024/02/28 04:50:49;;;;;;;;;;;;;;;;;;4198397;28;19920;-53
2024/02/28 04:52:50;;;;;;;;;;;;;;;;;;4190588;28;19932;-54
2024/02/28 04:54:53;;;;;;;;;;;;;;;;;;4181691;28;19943;-54
2024/02/28 04:56:55;;;;;;;;;;;;;;;;;;4181977;28;19924;-52
2024/02/28 04:58:56;;;;;;;;;;;;;;;;;;4181609;28;20299;-53
2024/02/28 05:00:57;;;;;;;;;;;;;;;;;;4164177;28;19921;-53
2024/02/28 05:02:59;;;;;;;;;;;;;;;;;;4181932;28;20258;-54
2024/02/28 05:05:00;;;;;;;;;;;;;;;;;;4181434;28;19927;-52
2024/02/28 05:07:03;;;;;;;;;;;;;;;;;;4182636;28;19924;-49
2024/02/28 05:09:04;;;;;;;;;;;;;;;;;;4181609;28;20007;-52
2024/02/28 05:11:06;;;;;;;;;;;;;;;;;;4181528;28;19990;-54
2024/02/28 05:13:07;;;;;;;;;;;;;;;;;;4184901;28;19928;-52
2024/02/28 05:15:09;;;;;;;;;;;;;;;;;;4199956;28;20292;-53
2024/02/28 05:17:11;;;;;;;;;;;;;;;;;;4200338;28;20361;-54
2024/02/28 05:19:13;;;;;;;;;;;;;;;;;;4180850;28;20300;-53
2024/02/28 05:21:14;;;;;;;;;;;;;;;;;;4181431;28;19921;-54
2024/02/28 05:23:16;;;;;;;;;;;;;;;;;;4181389;28;19921;-54
2024/02/28 05:25:17;;;;;;;;;;;;;;;;;;4181299;28;19920;-53
2024/02/28 05:27:19;;;;;;;;;;;;;;;;;;4181374;28;19956;-54
2024/02/28 05:29:21;;;;;;;;;;;;;;;;;;4181307;28;19951;-54
2024/02/28 05:31:22;;;;;;;;;;;;;;;;;;4181266;28;20331;-54
2024/02/28 05:33:24;;;;;;;;;;;;;;;;;;4181109;28;19921;-54
2024/02/28 05:35:25;;;;;;;;;;;;;;;;;;4181152;28;19960;-54
2024/02/28 05:37:39;;;;;;;;;;;;;;;;;;4180909;28;19971;-54
2024/02/28 05:39:40;;;;;;;;;;;;;;;;;;4181178;28;20023;-54
2024/02/28 05:41:42;;;;;;;;;;;;;;;;;;4181118;28;19966;-54
2024/02/28 05:43:43;;;;;;;;;;;;;;;;;;4181323;28;20323;-54
2024/02/28 05:45:45;;;;;;;;;;;;;;;;;;4183398;28;19924;-53
2024/02/28 05:47:46;;;;;;;;;;;;;;;;;;4196954;28;20283;-54
2024/02/28 05:49:48;;;;;;;;;;;;;;;;;;4183831;28;19921;-52
2024/02/28 05:51:50;;;;;;;;;;;;;;;;;;4180935;28;20357;-54
2024/02/28 05:53:51;;;;;;;;;;;;;;;;;;4180916;28;19967;-53
2024/02/28 05:55:56;;;;;;;;;;;;;;;;;;4181113;28;19982;-54
2024/02/28 05:57:58;;;;;;;;;;;;;;;;;;4180856;28;19925;-54
2024/02/28 06:00:00;;;;;;;;;;;;;;;;;;4180635;28;19921;-55
2024/02/28 06:02:01;;;;;;;;;;;;;;;;;;4180793;28;19921;-53
2024/02/28 06:04:03;;;;;;;;;;;;;;;;;;4180674;28;19925;-53
2024/02/28 06:06:05;;;;;;;;;;;;;;;;;;4180042;28;19920;-55
2024/02/28 06:08:06;;;;;;;;;;;;;;;;;;4180016;28;19925;-51
2024/02/28 06:10:08;;;;;;;;;;;;;;;;;;4179201;28;19943;-53
2024/02/28 06:12:09;;;;;;;;;;;;;;;;;;4211338;28;19920;-54
2024/02/28 06:14:11;;;;;;;;;;;;;;;;;;4185353;28;19963;-54
2024/02/28 06:16:12;;;;;;;;;;;;;;;;;;4181968;28;19982;-53
2024/02/28 06:18:14;;;;;;;;;;;;;;;;;;4162975;28;19944;-53
2024/02/28 06:20:15;;;;;;;;;;;;;;;;;;4180757;28;19927;-62
2024/02/28 06:22:18;;;;;;;;;;;;;;;;;;4180521;28;19921;-62
2024/02/28 06:24:20;;;;;;;;;;;;;;;;;;4181109;28;19925;-62
2024/02/28 06:26:22;;;;;;;;;;;;;;;;;;4180797;28;19928;-62
2024/02/28 06:28:24;;;;;;;;;;;;;;;;;;4180638;28;19920;-61
2024/02/28 06:30:25;;;;;;;;;;;;;;;;;;4184402;28;19963;-61
2024/02/28 06:32:27;;;;;;;;;;;;;;;;;;4190506;28;20036;-63
2024/02/28 06:34:29;;;;;;;;;;;;;;;;;;4196748;28;20302;-62
2024/02/28 06:36:30;;;;;;;;;;;;;;;;;;4197190;28;20128;-62
2024/02/28 06:38:31;;;;;;;;;;;;;;;;;;4196981;28;19928;-62
2024/02/28 06:40:33;;;;;;;;;;;;;;;;;;4197011;28;19921;-62
2024/02/28 06:42:36;;;;;;;;;;;;;;;;;;4196681;28;19924;-61
2024/02/28 06:44:37;;;;;;;;;;;;;;;;;;4194980;28;19924;-63
2024/02/28 06:46:39;;;;;;;;;;;;;;;;;;4180506;28;19925;-61
2024/02/28 06:48:40;;;;;;;;;;;;;;;;;;4180373;28;20019;-61
2024/02/28 06:50:42;;;;;;;;;;;;;;;;;;4162994;28;19921;-62
2024/02/28 06:52:43;;;;;;;;;;;;;;;;;;4179850;28;20442;-62
2024/02/28 06:54:45;;;;;;;;;;;;;;;;;;4162849;28;19927;-62
2024/02/28 06:56:46;;;;;;;;;;;;;;;;;;4180409;28;19927;-63
2024/02/28 06:58:48;;;;;;;;;;;;;;;;;;4179788;28;19974;-62
2024/02/28 07:00:49;;;;;;;;;;;;;;;;;;4180424;28;19921;-63
2024/02/28 07:02:54;;;;;;;;;;;;;;;;;;4182428;28;19971;-62
2024/02/28 07:04:56;;;;;;;;;;;;;;;;;;4183805;28;20001;-62
2024/02/28 07:06:57;;;;;;;;;;;;;;;;;;4190132;28;19920;-61
2024/02/28 07:08:59;;;;;;;;;;;;;;;;;;4198616;28;19991;-61
2024/02/28 07:11:01;;;;;;;;;;;;;;;;;;4216546;28;20315;-63
2024/02/28 07:13:02;;;;;;;;;;;;;;;;;;4216858;28;19920;-62
2024/02/28 07:15:04;;;;;;;;;;;;;;;;;;4216631;28;19958;-61
2024/02/28 07:17:06;;;;;;;;;;;;;;;;;;4216451;28;19920;-62
2024/02/28 07:19:08;;;;;;;;;;;;;;;;;;4216799;28;19945;-62
2024/02/28 07:21:09;;;;;;;;;;;;;;;;;;4215673;28;20006;-62
2024/02/28 07:23:11;;;;;;;;;;;;;;;;;;4216669;28;20383;-62
2024/02/28 07:25:12;;;;;;;;;;;;;;;;;;4216501;28;19924;-61
2024/02/28 07:27:14;;;;;;;;;;;;;;;;;;4216867;28;19919;-61
2024/02/28 07:29:15;;;;;;;;;;;;;;;;;;4216648;28;19924;-61
2024/02/28 07:31:17;;;;;;;;;;;;;;;;;;4216411;28;20421;-62
2024/02/28 07:33:18;;;;;;;;;;;;;;;;;;4216361;28;20050;-61
2024/02/28 07:35:20;;;;;;;;;;;;;;;;;;4198290;28;19924;-62
2024/02/28 07:37:22;;;;;;;;;;;;;;;;;;4216196;28;19920;-62
2024/02/28 07:39:24;;;;;;;;;;;;;;;;;;4216514;28;19969;-62
2024/02/28 07:41:25;;;;;;;;;;;;;;;;;;4185417;28;19920;-62
2024/02/28 07:43:27;;;;;;;;;;;;;;;;;;4165033;28;19925;-62
2024/02/28 07:45:28;;;;;;;;;;;;;;;;;;4182681;28;19921;-62
2024/02/28 07:47:31;;;;;;;;;;;;;;;;;;4183120;28;19920;-62
2024/02/28 07:49:32;;;;;;;;;;;;;;;;;;4182864;28;20399;-62
2024/02/28 07:51:33;;;;;;;;;;;;;;;;;;4182795;28;19927;-62
2024/02/28 07:53:35;;;;;;;;;;;;;;;;;;4182616;28;20003;-62
2024/02/28 07:55:36;;;;;;;;;;;;;;;;;;4182994;28;20330;-61
2024/02/28 07:57:38;;;;;;;;;;;;;;;;;;4182608;28;20322;-62
2024/02/28 07:59:40;;;;;;;;;;;;;;;;;;4182549;28;20411;-62
2024/02/28 08:01:41;;;;;;;;;;;;;;;;;;4182556;28;19924;-63
2024/02/28 08:03:43;;;;;;;;;;;;;;;;;;4197517;28;19920;-62
2024/02/28 08:05:45;;;;;;;;;;;;;;;;;;4216170;28;19920;-62
2024/02/28 08:07:46;;;;;;;;;;;;;;;;;;4215738;28;19973;-63
2024/02/28 08:09:48;;;;;;;;;;;;;;;;;;4215928;28;19920;-62
2024/02/28 08:11:49;;;;;;;;;;;;;;;;;;4215721;28;20010;-62
2024/02/28 08:13:51;;;;;;;;;;;;;;;;;;4197526;28;19928;-62
2024/02/28 08:15:53;;;;;;;;;;;;;;;;;;4215461;28;19920;-62
2024/02/28 08:17:55;;;;;;;;;;;;;;;;;;4215573;28;19920;-62
2024/02/28 08:19:57;;;;;;;;;;;;;;;;;;4215493;28;20003;-62
2024/02/28 08:21:58;;;;;;;;;;;;;;;;;;4197573;28;20407;-62
2024/02/28 08:24:04;;;;;;;;;;;;;;;;;;4215417;28;19985;-62
2024/02/28 08:26:05;;;;;;;;;;;;;;;;;;4215992;28;19950;-63
2024/02/28 08:28:07;;;;;;;;;;;;;;;;;;4215693;28;20342;-62
2024/02/28 08:30:08;;;;;;;;;;;;;;;;;;4197451;28;19970;-62
2024/02/28 08:32:10;;;;;;;;;;;;;;;;;;4215337;28;20341;-62
2024/02/28 08:34:11;;;;;;;;;;;;;;;;;;4197678;28;19950;-62
2024/02/28 08:36:13;;;;;;;;;;;;;;;;;;4197447;28;19921;-62
2024/02/28 08:38:14;;;;;;;;;;;;;;;;;;4193202;28;20023;-62
2024/02/28 08:40:16;;;;;;;;;;;;;;;;;;4182548;28;19925;-62
2024/02/28 08:42:17;;;;;;;;;;;;;;;;;;4182282;28;19928;-63
2024/02/28 08:44:20;;;;;;;;;;;;;;;;;;4181715;28;20311;-62
2024/02/28 08:46:22;;;;;;;;;;;;;;;;;;4182161;28;19929;-62
2024/02/28 08:48:23;;;;;;;;;;;;;;;;;;4181873;28;19921;-62
2024/02/28 08:50:25;;;;;;;;;;;;;;;;;;4182171;28;20047;-61
2024/02/28 08:52:26;;;;;;;;;;;;;;;;;;4182054;28;19920;-62
2024/02/28 08:54:28;;;;;;;;;;;;;;;;;;4181839;28;19920;-62
2024/02/28 08:56:29;;;;;;;;;;;;;;;;;;4181655;28;19927;-62
2024/02/28 08:58:31;;;;;;;;;;;;;;;;;;4164153;28;19921;-63
2024/02/28 09:00:32;;;;;;;;;;;;;;;;;;4206351;28;19927;-62
2024/02/28 09:02:34;;;;;;;;;;;;;;;;;;4214952;28;19927;-62
2024/02/28 09:04:36;;;;;;;;;;;;;;;;;;4214691;28;19927;-62
2024/02/28 09:06:37;;;;;;;;;;;;;;;;;;4214902;28;20379;-62
2024/02/28 09:08:39;;;;;;;;;;;;;;;;;;4214951;28;19923;-62
2024/02/28 09:10:40;;;;;;;;;;;;;;;;;;4214978;28;19920;-62
2024/02/28 09:12:42;;;;;;;;;;;;;;;;;;4196583;28;20376;-62
2024/02/28 09:14:45;;;;;;;;;;;;;;;;;;4214683;28;20296;-62
2024/02/28 09:16:47;;;;;;;;;;;;;;;;;;4214618;28;20016;-62
2024/02/28 09:18:49;;;;;;;;;;;;;;;;;;4214645;28;19985;-62
2024/02/28 09:20:50;;;;;;;;;;;;;;;;;;4214811;28;19947;-62
2024/02/28 09:22:52;;;;;;;;;;;;;;;;;;4214580;28;19928;-62
2024/02/28 09:24:53;;;;;;;;;;;;;;;;;;4214109;28;19942;-63
2024/02/28 09:26:55;;;;;;;;;;;;;;;;;;4214769;28;20295;-63
2024/02/28 09:28:56;;;;;;;;;;;;;;;;;;4214917;28;19951;-63
2024/02/28 09:30:58;;;;;;;;;;;;;;;;;;4214566;28;19920;-63
2024/02/28 09:32:59;;;;;;;;;;;;;;;;;;4214384;28;19930;-62
2024/02/28 09:35:01;;;;;;;;;;;;;;;;;;4183422;28;19925;-62
2024/02/28 09:37:03;;;;;;;;;;;;;;;;;;4181392;28;19971;-62
2024/02/28 09:39:05;;;;;;;;;;;;;;;;;;4181179;28;19956;-62
2024/02/28 09:41:07;;;;;;;;;;;;;;;;;;4181172;28;19939;-62
2024/02/28 09:43:08;;;;;;;;;;;;;;;;;;4181055;28;19921;-62
2024/02/28 09:45:10;;;;;;;;;;;;;;;;;;4181005;28;19934;-62
2024/02/28 09:47:11;;;;;;;;;;;;;;;;;;4181081;28;20139;-62
2024/02/28 09:49:13;;;;;;;;;;;;;;;;;;4181082;28;20364;-62
2024/02/28 09:51:14;;;;;;;;;;;;;;;;;;4181051;28;19924;-63
2024/02/28 09:53:16;;;;;;;;;;;;;;;;;;4163356;28;19966;-63
2024/02/28 09:55:17;;;;;;;;;;;;;;;;;;4180982;28;19927;-62
2024/02/28 09:57:19;;;;;;;;;;;;;;;;;;4180978;28;19920;-62
2024/02/28 09:59:21;;;;;;;;;;;;;;;;;;4181079;28;20231;-62
2024/02/28 10:01:26;;;;;;;;;;;;;;;;;;4181300;28;19952;-66
2024/02/28 10:03:28;;;;;;;;;;;;;;;;;;4180883;28;20008;-66
2024/02/28 10:05:29;;;;;;;;;;;;;;;;;;4180883;28;20341;-67
2024/02/28 10:07:31;;;;;;;;;;;;;;;;;;4163172;28;20328;-66
2024/02/28 10:09:32;;;;;;;;;;;;;;;;;;4180875;28;19932;-66
2024/02/28 10:11:35;;;;;;;;;;;;;;;;;;4180855;28;19920;-67
2024/02/28 10:13:37;;;;;;;;;;;;;;;;;;4180803;28;19924;-67
2024/02/28 10:15:38;;;;;;;;;;;;;;;;;;4180798;28;19928;-66
2024/02/28 10:17:40;;;;;;;;;;;;;;;;;;4180740;28;19924;-66
2024/02/28 10:19:41;;;;;;;;;;;;;;;;;;4181071;28;19925;-66
2024/02/28 10:21:43;;;;;;;;;;;;;;;;;;4180884;28;19924;-67
2024/02/28 10:23:44;;;;;;;;;;;;;;;;;;4180940;28;20295;-66
2024/02/28 10:25:46;;;;;;;;;;;;;;;;;;4180714;28;19920;-67
2024/02/28 10:27:56;;;;;;;;;;;;;;;;;;4180854;28;19947;-66
2024/02/28 10:29:57;;;;;;;;;;;;;;;;;;4180691;28;20373;-67
2024/02/28 10:31:59;;;;;;;;;;;;;;;;;;4180822;28;19920;-67
2024/02/28 10:34:01;;;;;;;;;;;;;;;;;;4180712;28;19921;-66
2024/02/28 10:36:02;;;;;;;;;;;;;;;;;;4181230;28;20408;-66
2024/02/28 10:38:04;;;;;;;;;;;;;;;;;;4167986;28;19929;-66
2024/02/28 10:40:05;;;;;;;;;;;;;;;;;;4200880;28;19924;-67
2024/02/28 10:42:07;;;;;;;;;;;;;;;;;;4200435;28;19978;-67
2024/02/28 10:44:10;;;;;;;;;;;;;;;;;;4200136;28;19925;-66
2024/02/28 10:46:11;;;;;;;;;;;;;;;;;;4200527;28;19927;-67
2024/02/28 10:48:28;;;;;;;;;;;;;;;;;;4188961;28;19920;-66
2024/02/28 10:50:30;;;;;;;;;;;;;;;;;;4183942;28;19921;-66
2024/02/28 10:52:33;;;;;;;;;;;;;;;;;;4196570;28;19943;-65
2024/02/28 10:54:34;;;;;;;;;;;;;;;;;;4187611;28;20002;-66
2024/02/28 10:56:36;;;;;;;;;;;;;;;;;;4183477;28;19920;-65
2024/02/28 10:58:38;;;;;;;;;;;;;;;;;;4183132;28;19920;-67
2024/02/28 11:00:41;;;;;;;;;;;;;;;;;;4183003;28;19920;-66
2024/02/28 11:02:43;;;;;;;;;;;;;;;;;;4181773;28;19924;-66
2024/02/28 11:04:44;;;;;;;;;;;;;;;;;;4181863;28;19975;-67
2024/02/28 11:06:46;;;;;;;;;;;;;;;;;;4183140;28;19920;-67
2024/02/28 11:08:53;;;;;;;;;;;;;;;;;;4182356;28;20402;-67
2024/02/28 11:10:55;;;;;;;;;;;;;;;;;;4182321;28;19924;-66
2024/02/28 11:12:56;;;;;;;;;;;;;;;;;;4181862;28;19936;-65
2024/02/28 11:14:58;;;;;;;;;;;;;;;;;;4187433;28;19924;-66
2024/02/28 11:17:00;;;;;;;;;;;;;;;;;;4190184;28;19920;-66
2024/02/28 11:19:01;;;;;;;;;;;;;;;;;;4187718;28;19970;-65
2024/02/28 11:21:04;;;;;;;;;;;;;;;;;;4187145;28;20402;-65
2024/02/28 11:23:08;;;;;;;;;;;;;;;;;;4190800;28;20389;-66
2024/02/28 11:25:10;;;;;;;;;;;;;;;;;;4183170;28;19920;-66
2024/02/28 11:27:13;;;;;;;;;;;;;;;;;;4183026;28;19929;-66
2024/02/28 11:29:14;;;;;;;;;;;;;;;;;;4183878;28;19982;-67
2024/02/28 11:31:16;;;;;;;;;;;;;;;;;;4185038;28;20352;-66
2024/02/28 11:33:18;;;;;;;;;;;;;;;;;;4192169;28;20345;-65
2024/02/28 11:35:21;;;;;;;;;;;;;;;;;;4191309;28;19924;-66
2024/02/28 11:37:22;;;;;;;;;;;;;;;;;;4184097;28;20355;-65
2024/02/28 11:39:26;;;;;;;;;;;;;;;;;;4182893;28;19974;-66
2024/02/28 11:41:28;;;;;;;;;;;;;;;;;;4196589;28;20042;-66
2024/02/28 11:43:30;;;;;;;;;;;;;;;;;;4198035;28;19928;-65
2024/02/28 11:45:31;;;;;;;;;;;;;;;;;;4189837;28;19920;-65
2024/02/28 11:47:33;;;;;;;;;;;;;;;;;;4183878;28;19924;-66
2024/02/28 11:49:34;;;;;;;;;;;;;;;;;;4207238;28;20402;-66
2024/02/28 11:51:36;;;;;;;;;;;;;;;;;;4174551;28;19928;-66
2024/02/28 11:53:37;;;;;;;;;;;;;;;;;;4195053;28;20342;-65
2024/02/28 11:55:41;;;;;;;;;;;;;;;;;;4199333;28;19924;-66
2024/02/28 11:57:43;;;;;;;;;;;;;;;;;;4197162;28;19924;-66
2024/02/28 11:59:44;;;;;;;;;;;;;;;;;;4182604;28;19927;-66
2024/02/28 12:01:46;;;;;;;;;;;;;;;;;;4148810;28;19921;-65
2024/02/28 12:03:48;;;;;;;;;;;;;;;;;;4183367;28;20732;-65
2024/02/28 12:05:50;;;;;;;;;;;;;;;;;;4182568;28;19921;-65
2024/02/28 12:07:53;;;;;;;;;;;;;;;;;;4192423;28;19924;-66
2024/02/28 12:09:56;;;;;;;;;;;;;;;;;;4198698;28;19920;-66
2024/02/28 12:11:57;;;;;;;;;;;;;;;;;;4195552;28;20102;-65
2024/02/28 12:13:59;;;;;;;;;;;;;;;;;;4187552;28;19962;-66
2024/02/28 12:16:01;;;;;;;;;;;;;;;;;;4198782;28;19920;-64
2024/02/28 12:18:02;;;;;;;;;;;;;;;;;;4196744;28;19981;-65
2024/02/28 12:20:04;;;;;;;;;;;;;;;;;;4182733;28;19928;-65
2024/02/28 12:22:06;;;;;;;;;;;;;;;;;;4183446;28;19965;-65
2024/02/28 12:24:09;;;;;;;;;;;;;;;;;;4189464;28;19924;-65
2024/02/28 12:26:10;;;;;;;;;;;;;;;;;;4198790;28;19974;-66
2024/02/28 12:28:13;;;;;;;;;;;;;;;;;;4169623;28;19967;-66
2024/02/28 12:30:14;;;;;;;;;;;;;;;;;;4170091;28;20404;-66
2024/02/28 12:32:17;;;;;;;;;;;;;;;;;;4197606;28;19927;-61
2024/02/28 12:34:19;;;;;;;;;;;;;;;;;;4198701;28;20010;-61
2024/02/28 12:36:20;;;;;;;;;;;;;;;;;;4198642;28;19920;-61
2024/02/28 12:38:22;;;;;;;;;;;;;;;;;;4197251;28;19920;-61
2024/02/28 12:40:25;;;;;;;;;;;;;;;;;;4181890;28;19920;-61
2024/02/28 12:42:27;;;;;;;;;;;;;;;;;;4191099;28;19921;-61
2024/02/28 12:44:28;;;;;;;;;;;;;;;;;;4192770;28;19929;-55
2024/02/28 12:46:30;;;;;;;;;;;;;;;;;;4186233;28;19921;-56
2024/02/28 12:48:32;;;;;;;;;;;;;;;;;;4182696;28;19928;-57
2024/02/28 12:50:35;;;;;;;;;;;;;;;;;;4179911;28;19924;-56
2024/02/28 12:52:36;;;;;;;;;;;;;;;;;;4166081;28;20371;-56
2024/02/28 12:54:38;;;;;;;;;;;;;;;;;;4182678;28;19924;-57
2024/02/28 12:56:39;;;;;;;;;;;;;;;;;;4180633;28;19928;-57
2024/02/28 12:58:41;;;;;;;;;;;;;;;;;;4182245;28;20334;-56
2024/02/28 13:00:42;;;;;;;;;;;;;;;;;;4185337;28;19920;-56
2024/02/28 13:02:44;;;;;;;;;;;;;;;;;;4183628;28;20266;-57
2024/02/28 13:04:46;;;;;;;;;;;;;;;;;;4182417;28;20384;-56
2024/02/28 13:06:47;;;;;;;;;;;;;;;;;;4184061;28;19920;-57
2024/02/28 13:08:52;;;;;;;;;;;;;;;;;;4187933;28;20390;-57
2024/02/28 13:10:54;;;;;;;;;;;;;;;;;;4192798;28;19924;-56
2024/02/28 13:12:58;;;;;;;;;;;;;;;;;;4190695;28;19925;-56
2024/02/28 13:14:59;;;;;;;;;;;;;;;;;;4181497;28;19921;-56
2024/02/28 13:17:01;;;;;;;;;;;;;;;;;;4193544;28;19920;-56
2024/02/28 13:19:05;;;;;;;;;;;;;;;;;;4183964;28;19960;-56
2024/02/28 13:21:06;;;;;;;;;;;;;;;;;;4180365;28;19987;-56
2024/02/28 13:23:08;;;;;;;;;;;;;;;;;;4194873;28;19920;-56
2024/02/28 13:25:10;;;;;;;;;;;;;;;;;;4172907;28;19920;-57
2024/02/28 13:27:12;;;;;;;;;;;;;;;;;;4197415;28;20394;-56
2024/02/28 13:29:13;;;;;;;;;;;;;;;;;;4196658;28;19924;-56
2024/02/28 13:31:15;;;;;;;;;;;;;;;;;;4197751;28;20358;-56
2024/02/28 13:33:17;;;;;;;;;;;;;;;;;;4191109;28;19947;-57
2024/02/28 13:35:18;;;;;;;;;;;;;;;;;;4180006;28;19920;-60
2024/02/28 13:37:20;;;;;;;;;;;;;;;;;;4162916;28;19921;-61
2024/02/28 13:39:23;;;;;;;;;;;;;;;;;;4181288;28;19931;-60
2024/02/28 13:41:25;;;;;;;;;;;;;;;;;;4203190;28;19930;-59
2024/02/28 13:43:29;;;;;;;;;;;;;;;;;;4193514;28;19951;-59
2024/02/28 13:45:30;;;;;;;;;;;;;;;;;;4180902;28;19925;-59
2024/02/28 13:47:32;;;;;;;;;;;;;;;;;;4181307;28;19925;-59
2024/02/28 13:49:34;;;;;;;;;;;;;;;;;;4182422;28;19970;-59
2024/02/28 13:51:35;;;;;;;;;;;;;;;;;;4182342;28;19952;-60